createdAt,value
2018-12-11T00:00:10.727Z,54.30
2018-12-11T00:02:37.720Z,54.30
2018-12-11T00:05:04.672Z,54.30
2018-12-11T00:07:31.612Z,54.20
2018-12-11T00:09:58.560Z,54.20
2018-12-11T00:12:25.510Z,54.20
2018-12-11T00:14:52.436Z,54.20
2018-12-11T00:17:19.396Z,54.10
2018-12-11T00:19:46.319Z,54.10
2018-12-11T00:22:13.300Z,54.10
2018-12-11T00:24:40.239Z,54.10
2018-12-11T00:27:07.180Z,54.10
2018-12-11T00:29:34.123Z,54.10
2018-12-11T00:32:01.045Z,54.00
2018-12-11T00:34:27.959Z,54.00
2018-12-11T00:36:54.887Z,54.00
2018-12-11T00:39:21.904Z,54.00
2018-12-11T00:41:48.861Z,54.40
2018-12-11T00:44:15.772Z,54.10
2018-12-11T00:46:42.745Z,54.10
2018-12-11T00:49:09.664Z,54.10
2018-12-11T00:51:36.584Z,54.10
2018-12-11T00:54:03.508Z,54.10
2018-12-11T00:56:30.525Z,54.10
2018-12-11T00:58:57.448Z,54.20
2018-12-11T01:01:24.375Z,54.10
2018-12-11T01:03:51.372Z,54.10
2018-12-11T01:06:20.214Z,54.10
2018-12-11T01:08:47.211Z,54.20
2018-12-11T01:11:14.128Z,54.10
2018-12-11T01:13:41.096Z,54.10
2018-12-11T01:16:08.041Z,54.10
2018-12-11T01:18:34.985Z,54.00
2018-12-11T01:21:01.936Z,54.00
2018-12-11T01:23:28.882Z,54.00
2018-12-11T01:25:55.930Z,54.00
2018-12-11T01:28:22.844Z,54.00
2018-12-11T01:30:49.760Z,54.00
2018-12-11T01:33:16.682Z,54.00
2018-12-11T01:35:43.596Z,54.00
2018-12-11T01:38:10.572Z,54.00
2018-12-11T01:40:37.525Z,54.00
2018-12-11T01:43:04.472Z,54.00
2018-12-11T01:45:31.416Z,53.90
2018-12-11T01:47:58.330Z,53.90
2018-12-11T01:50:25.400Z,54.00
2018-12-11T01:52:52.358Z,53.90
2018-12-11T01:55:19.267Z,54.00
2018-12-11T01:57:46.188Z,54.00
2018-12-11T02:00:13.188Z,54.10
2018-12-11T02:02:40.128Z,54.00
2018-12-11T02:05:07.053Z,54.10
2018-12-11T02:07:34.504Z,54.00
2018-12-11T02:10:01.441Z,54.00
2018-12-11T02:12:28.357Z,53.90
2018-12-11T02:14:55.281Z,53.90
2018-12-11T02:17:22.212Z,53.90
2018-12-11T02:19:49.144Z,53.90
2018-12-11T02:22:16.067Z,54.00
2018-12-11T02:24:42.981Z,54.00
2018-12-11T02:27:09.896Z,53.90
2018-12-11T02:29:36.811Z,54.00
2018-12-11T02:32:03.786Z,53.90
2018-12-11T02:34:30.701Z,53.90
2018-12-11T02:36:57.633Z,53.90
2018-12-11T02:39:24.547Z,53.90
2018-12-11T02:41:51.467Z,53.90
2018-12-11T02:44:18.395Z,53.90
2018-12-11T02:46:45.309Z,53.90
2018-12-11T02:49:12.229Z,53.90
2018-12-11T02:51:39.151Z,53.80
2018-12-11T02:54:06.077Z,53.80
2018-12-11T02:56:32.990Z,53.80
2018-12-11T02:58:59.932Z,53.90
2018-12-11T03:01:26.870Z,53.80
2018-12-11T03:03:53.780Z,53.90
2018-12-11T03:06:20.699Z,53.90
2018-12-11T03:08:47.635Z,53.90
2018-12-11T03:11:14.631Z,53.80
2018-12-11T03:13:41.555Z,53.80
2018-12-11T03:16:08.481Z,54.40
2018-12-11T03:18:35.591Z,53.80
2018-12-11T03:21:02.524Z,53.80
2018-12-11T03:23:29.442Z,53.80
2018-12-11T03:25:56.352Z,53.80
2018-12-11T03:28:23.273Z,53.80
2018-12-11T03:30:50.189Z,53.80
2018-12-11T03:33:17.126Z,53.70
2018-12-11T03:35:44.042Z,53.70
2018-12-11T03:38:10.961Z,53.80
2018-12-11T03:40:37.879Z,53.70
2018-12-11T03:43:04.795Z,53.80
2018-12-11T03:45:31.722Z,54.40
2018-12-11T03:47:58.721Z,53.80
2018-12-11T03:50:25.680Z,53.70
2018-12-11T03:52:52.689Z,53.70
2018-12-11T03:55:19.618Z,53.80
2018-12-11T03:57:46.538Z,53.70
2018-12-11T04:00:13.554Z,53.70
2018-12-11T04:02:40.478Z,53.70
2018-12-11T04:05:07.409Z,53.70
2018-12-11T04:07:34.420Z,53.70
2018-12-11T04:10:01.335Z,53.70
2018-12-11T04:12:28.396Z,53.70
2018-12-11T04:14:55.558Z,54.40
2018-12-11T04:17:22.473Z,53.80
2018-12-11T04:19:49.388Z,53.70
2018-12-11T04:22:16.309Z,53.80
2018-12-11T04:24:43.219Z,53.70
2018-12-11T04:27:10.172Z,53.70
2018-12-11T04:29:37.092Z,53.70
2018-12-11T04:32:04.015Z,53.70
2018-12-11T04:34:30.924Z,53.80
2018-12-11T04:36:57.840Z,53.80
2018-12-11T04:39:24.760Z,53.70
2018-12-11T04:41:51.692Z,53.70
2018-12-11T04:44:18.610Z,53.70
2018-12-11T04:46:45.546Z,53.70
2018-12-11T04:49:12.465Z,53.70
2018-12-11T04:51:39.377Z,53.70
2018-12-11T04:54:07.424Z,53.70
2018-12-11T04:56:34.598Z,53.70
2018-12-11T04:59:01.586Z,53.70
2018-12-11T05:01:28.591Z,53.70
2018-12-11T05:03:55.585Z,53.70
2018-12-11T05:06:22.587Z,53.70
2018-12-11T05:08:49.585Z,53.70
2018-12-11T05:11:16.607Z,53.70
2018-12-11T05:13:43.615Z,53.70
2018-12-11T05:16:10.613Z,53.70
2018-12-11T05:18:37.623Z,53.70
2018-12-11T05:21:04.624Z,53.70
2018-12-11T05:23:31.625Z,53.70
2018-12-11T05:25:58.534Z,53.70
2018-12-11T05:28:25.453Z,53.80
2018-12-11T05:30:52.377Z,53.70
2018-12-11T05:33:19.300Z,53.70
2018-12-11T05:35:46.224Z,53.70
2018-12-11T05:38:13.141Z,53.70
2018-12-11T05:40:40.065Z,53.70
2018-12-11T05:43:07.089Z,53.70
2018-12-11T05:45:34.091Z,53.70
2018-12-11T05:48:01.110Z,53.70
2018-12-11T05:50:28.126Z,53.70
2018-12-11T05:52:55.130Z,53.70
2018-12-11T05:55:22.142Z,53.80
2018-12-11T05:57:49.118Z,53.80
2018-12-11T06:00:16.322Z,53.80
2018-12-11T06:02:43.337Z,53.90
2018-12-11T06:05:10.407Z,53.80
2018-12-11T06:07:37.387Z,53.70
2018-12-11T06:10:04.659Z,53.80
2018-12-11T06:12:31.579Z,53.70
2018-12-11T06:14:58.496Z,53.70
2018-12-11T06:17:25.421Z,54.30
2018-12-11T06:19:52.343Z,53.70
2018-12-11T06:22:19.255Z,53.70
2018-12-11T06:24:46.189Z,53.70
2018-12-11T06:27:13.210Z,53.70
2018-12-11T06:29:40.143Z,53.70
2018-12-11T06:32:07.068Z,53.70
2018-12-11T06:34:33.980Z,53.70
2018-12-11T06:37:00.909Z,53.70
2018-12-11T06:39:27.832Z,53.70
2018-12-11T06:41:54.752Z,53.70
2018-12-11T06:44:21.671Z,53.70
2018-12-11T06:46:48.591Z,53.70
2018-12-11T06:49:15.533Z,53.70
2018-12-11T06:51:42.457Z,53.70
2018-12-11T06:54:09.377Z,53.70
2018-12-11T06:56:36.331Z,53.70
2018-12-11T06:59:03.247Z,53.80
2018-12-11T07:01:30.194Z,53.70
2018-12-11T07:03:57.118Z,53.70
2018-12-11T07:06:24.178Z,53.70
2018-12-11T07:08:51.093Z,53.70
2018-12-11T07:11:18.012Z,53.80
2018-12-11T07:13:44.935Z,53.80
2018-12-11T07:16:11.869Z,53.80
2018-12-11T07:18:38.822Z,53.80
2018-12-11T07:21:05.744Z,53.90
2018-12-11T07:23:32.675Z,53.90
2018-12-11T07:25:59.596Z,53.90
2018-12-11T07:28:26.520Z,53.80
2018-12-11T07:30:53.476Z,53.90
2018-12-11T07:33:20.461Z,53.90
2018-12-11T07:35:47.381Z,53.80
2018-12-11T07:38:14.331Z,53.80
2018-12-11T07:40:41.292Z,53.70
2018-12-11T07:43:08.218Z,53.70
2018-12-11T07:45:35.174Z,53.70
2018-12-11T07:48:02.089Z,53.70
2018-12-11T07:50:29.008Z,54.30
2018-12-11T07:52:55.920Z,53.70
2018-12-11T07:55:22.844Z,53.70
2018-12-11T07:57:49.811Z,53.70
2018-12-11T08:00:16.754Z,53.70
2018-12-11T08:02:43.707Z,53.70
2018-12-11T08:05:10.739Z,53.70
2018-12-11T08:07:37.688Z,53.70
2018-12-11T08:10:05.329Z,53.70
2018-12-11T08:12:32.359Z,53.70
2018-12-11T08:14:59.346Z,53.70
2018-12-11T08:17:26.293Z,53.70
2018-12-11T08:19:53.217Z,53.70
2018-12-11T08:22:20.155Z,53.70
2018-12-11T08:24:47.129Z,53.60
2018-12-11T08:27:14.067Z,53.60
2018-12-11T08:29:40.988Z,53.60
2018-12-11T08:32:07.908Z,53.60
2018-12-11T08:34:34.831Z,53.60
2018-12-11T08:37:01.739Z,53.50
2018-12-11T08:39:28.709Z,53.40
2018-12-11T08:41:55.616Z,53.40
2018-12-11T08:44:22.594Z,53.40
2018-12-11T08:46:49.507Z,53.30
2018-12-11T08:49:16.475Z,53.30
2018-12-11T08:51:43.422Z,53.30
2018-12-11T08:54:10.587Z,53.40
2018-12-11T08:56:37.536Z,53.40
2018-12-11T08:59:06.765Z,53.40
2018-12-11T09:01:33.369Z,53.30
2018-12-11T09:04:00.312Z,53.30
2018-12-11T09:06:27.249Z,53.00
2018-12-11T09:08:54.169Z,52.90
2018-12-11T09:11:21.152Z,52.90
2018-12-11T09:13:48.096Z,52.80
2018-12-11T09:16:15.036Z,52.80
2018-12-11T09:18:41.979Z,52.80
2018-12-11T09:21:08.891Z,52.70
2018-12-11T09:23:35.876Z,53.40
2018-12-11T09:26:02.824Z,52.70
2018-12-11T09:28:29.763Z,52.70
2018-12-11T09:30:56.685Z,52.80
2018-12-11T09:33:23.607Z,52.90
2018-12-11T09:35:50.515Z,53.00
2018-12-11T09:38:17.432Z,53.00
2018-12-11T09:40:44.347Z,53.00
2018-12-11T09:43:11.255Z,53.00
2018-12-11T09:45:38.172Z,52.70
2018-12-11T09:48:05.083Z,52.80
2018-12-11T09:50:32.008Z,52.90
2018-12-11T09:52:59.019Z,52.90
2018-12-11T09:55:25.976Z,53.00
2018-12-11T09:57:52.922Z,53.10
2018-12-11T10:00:25.704Z,53.20
2018-12-11T10:02:48.861Z,53.00
2018-12-11T10:05:15.805Z,53.00
2018-12-11T10:07:42.725Z,53.00
2018-12-11T10:10:09.690Z,53.00
2018-12-11T10:12:36.616Z,53.00
2018-12-11T10:15:03.790Z,53.00
2018-12-11T10:17:30.744Z,54.00
2018-12-11T10:19:57.693Z,53.20
2018-12-11T10:22:24.632Z,53.20
2018-12-11T10:24:51.587Z,53.30
2018-12-11T10:27:18.507Z,53.20
2018-12-11T10:29:45.474Z,53.10
2018-12-11T10:32:12.424Z,53.10
2018-12-11T10:34:39.341Z,53.00
2018-12-11T10:37:06.306Z,52.90
2018-12-11T10:39:33.239Z,52.90
2018-12-11T10:42:00.208Z,52.90
2018-12-11T10:44:27.122Z,52.80
2018-12-11T10:46:54.072Z,52.90
2018-12-11T10:49:21.023Z,52.90
2018-12-11T10:51:47.940Z,52.90
2018-12-11T10:54:14.917Z,52.80
2018-12-11T10:56:41.864Z,52.90
2018-12-11T10:59:10.231Z,52.90
2018-12-11T11:01:37.423Z,52.90
2018-12-11T11:04:04.367Z,53.00
2018-12-11T11:06:31.401Z,52.90
2018-12-11T11:08:58.328Z,52.90
2018-12-11T11:11:25.284Z,52.90
2018-12-11T11:13:52.214Z,52.80
2018-12-11T11:16:19.280Z,52.70
2018-12-11T11:18:46.199Z,52.60
2018-12-11T11:21:13.120Z,52.50
2018-12-11T11:23:40.049Z,52.50
2018-12-11T11:26:06.968Z,52.50
2018-12-11T11:28:33.901Z,52.50
2018-12-11T11:31:00.867Z,52.30
2018-12-11T11:33:27.796Z,52.30
2018-12-11T11:35:54.743Z,52.30
2018-12-11T11:38:21.661Z,52.10
2018-12-11T11:40:48.623Z,52.10
2018-12-11T11:43:15.584Z,52.20
2018-12-11T11:45:42.552Z,52.30
2018-12-11T11:48:09.472Z,52.50
2018-12-11T11:50:36.624Z,52.50
2018-12-11T11:53:03.560Z,52.60
2018-12-11T11:55:30.504Z,52.70
2018-12-11T11:57:57.456Z,52.60
2018-12-11T12:00:24.404Z,52.50
2018-12-11T12:02:51.315Z,52.20
2018-12-11T12:05:18.241Z,52.10
2018-12-11T12:07:45.242Z,52.10
2018-12-11T12:10:12.158Z,52.10
2018-12-11T12:12:39.067Z,52.00
2018-12-11T12:15:06.436Z,51.80
2018-12-11T12:17:33.355Z,51.70
2018-12-11T12:20:00.383Z,51.40
2018-12-11T12:22:27.314Z,51.40
2018-12-11T12:24:54.281Z,51.30
2018-12-11T12:27:21.200Z,51.30
2018-12-11T12:29:48.124Z,51.30
2018-12-11T12:32:15.100Z,51.30
2018-12-11T12:34:42.051Z,51.80
2018-12-11T12:37:08.971Z,52.00
2018-12-11T12:39:35.894Z,52.00
2018-12-11T12:42:02.808Z,51.80
2018-12-11T12:44:29.845Z,51.60
2018-12-11T12:46:56.784Z,51.60
2018-12-11T12:49:23.732Z,51.60
2018-12-11T12:51:50.671Z,51.60
2018-12-11T12:54:17.587Z,51.60
2018-12-11T12:56:44.516Z,51.50
2018-12-11T12:59:11.425Z,51.30
2018-12-11T13:01:38.373Z,51.30
2018-12-11T13:04:05.306Z,51.20
2018-12-11T13:06:32.360Z,51.30
2018-12-11T13:08:59.497Z,51.40
2018-12-11T13:11:26.406Z,51.40
2018-12-11T13:13:53.329Z,51.50
2018-12-11T13:16:20.335Z,51.80
2018-12-11T13:18:47.266Z,51.80
2018-12-11T13:21:14.222Z,51.80
2018-12-11T13:23:41.141Z,51.60
2018-12-11T13:26:08.222Z,51.60
2018-12-11T13:28:35.168Z,51.70
2018-12-11T13:31:02.091Z,51.80
2018-12-11T13:33:29.060Z,51.60
2018-12-11T13:35:56.024Z,51.60
2018-12-11T13:38:23.107Z,51.50
2018-12-11T13:40:50.066Z,51.50
2018-12-11T13:43:16.983Z,51.50
2018-12-11T13:45:43.909Z,51.50
2018-12-11T13:48:10.974Z,51.50
2018-12-11T13:50:37.922Z,51.40
2018-12-11T13:53:04.868Z,51.20
2018-12-11T13:55:31.829Z,51.30
2018-12-11T13:57:58.763Z,51.00
2018-12-11T14:00:25.681Z,51.00
2018-12-11T14:02:52.596Z,51.10
2018-12-11T14:05:19.516Z,51.10
2018-12-11T14:07:46.449Z,51.50
2018-12-11T14:10:13.388Z,51.60
2018-12-11T14:12:40.331Z,51.60
2018-12-11T14:15:07.616Z,51.50
2018-12-11T14:17:39.083Z,51.40
2018-12-11T14:20:06.087Z,51.40
2018-12-11T14:22:33.152Z,51.40
2018-12-11T14:25:00.304Z,51.20
2018-12-11T14:27:27.339Z,52.10
2018-12-11T14:29:54.271Z,51.80
2018-12-11T14:32:21.188Z,52.00
2018-12-11T14:34:48.175Z,51.90
2018-12-11T14:37:15.101Z,51.60
2018-12-11T14:39:42.057Z,51.50
2018-12-11T14:42:08.996Z,51.50
2018-12-11T14:44:35.917Z,51.60
2018-12-11T14:47:02.912Z,51.70
2018-12-11T14:49:29.845Z,52.10
2018-12-11T14:51:56.789Z,52.00
2018-12-11T14:54:23.841Z,52.00
2018-12-11T14:56:50.779Z,51.80
2018-12-11T14:59:17.697Z,51.90
2018-12-11T15:01:44.681Z,51.90
2018-12-11T15:04:11.611Z,51.80
2018-12-11T15:06:38.568Z,51.90
2018-12-11T15:09:11.913Z,51.90
2018-12-11T15:11:38.906Z,52.00
2018-12-11T15:14:05.849Z,51.90
2018-12-11T15:16:32.996Z,52.00
2018-12-11T15:18:59.925Z,52.00
2018-12-11T15:21:26.844Z,51.90
2018-12-11T15:23:53.848Z,51.90
2018-12-11T15:26:20.778Z,51.90
2018-12-11T15:28:47.690Z,52.10
2018-12-11T15:31:14.689Z,52.10
2018-12-11T15:33:41.633Z,52.10
2018-12-11T15:36:08.576Z,51.90
2018-12-11T15:38:35.500Z,51.70
2018-12-11T15:41:02.471Z,52.00
2018-12-11T15:43:29.685Z,51.30
2018-12-11T15:46:01.014Z,51.30
2018-12-11T15:48:25.653Z,51.30
2018-12-11T15:50:52.573Z,51.00
2018-12-11T15:53:19.535Z,50.90
2018-12-11T15:55:46.487Z,50.90
2018-12-11T15:58:13.451Z,50.80
2018-12-11T16:00:40.373Z,50.80
2018-12-11T16:03:07.332Z,50.90
2018-12-11T16:05:34.294Z,50.90
2018-12-11T16:08:01.334Z,51.00
2018-12-11T16:10:28.773Z,51.30
2018-12-11T16:12:55.692Z,51.60
2018-12-11T16:15:22.667Z,51.60
2018-12-11T16:17:49.625Z,51.50
2018-12-11T16:20:16.549Z,51.60
2018-12-11T16:22:43.517Z,51.60
2018-12-11T16:25:10.468Z,51.70
